createdAt,value
2018-04-22T00:00:38.300Z,16.40
2018-04-22T00:03:05.779Z,16.40
2018-04-22T00:05:34.022Z,16.30
2018-04-22T00:08:01.496Z,16.30
2018-04-22T00:10:28.956Z,16.20
2018-04-22T00:12:56.428Z,16.20
2018-04-22T00:15:23.912Z,16.20
2018-04-22T00:17:52.148Z,16.10
2018-04-22T00:20:19.622Z,16.00
2018-04-22T00:22:47.856Z,15.90
2018-04-22T00:25:16.084Z,15.90
2018-04-22T00:27:43.576Z,15.90
2018-04-22T00:30:11.036Z,15.80
2018-04-22T00:32:38.525Z,15.80
2018-04-22T00:35:06.754Z,15.70
2018-04-22T00:37:34.215Z,15.70
2018-04-22T00:40:01.704Z,15.70
2018-04-22T00:42:29.182Z,15.70
2018-04-22T00:44:56.641Z,15.70
2018-04-22T00:47:24.097Z,15.70
2018-04-22T00:49:51.568Z,15.70
2018-04-22T00:52:19.052Z,15.70
2018-04-22T00:54:47.286Z,15.50
2018-04-22T00:57:14.747Z,15.60
2018-04-22T00:59:42.215Z,15.50
2018-04-22T01:02:09.688Z,15.50
2018-04-22T01:04:37.168Z,15.40
2018-04-22T01:07:04.638Z,15.40
2018-04-22T01:09:32.890Z,15.30
2018-04-22T01:12:00.362Z,15.30
2018-04-22T01:14:27.822Z,15.30
2018-04-22T01:19:27.587Z,15.10
2018-04-22T01:21:55.843Z,15.10
2018-04-22T01:24:23.314Z,15.10
2018-04-22T01:26:50.785Z,15.00
2018-04-22T01:29:18.249Z,15.00
2018-04-22T01:31:45.726Z,14.90
2018-04-22T01:34:13.999Z,14.80
2018-04-22T01:36:41.461Z,14.80
2018-04-22T01:39:08.939Z,14.80
2018-04-22T01:41:37.181Z,14.80
2018-04-22T01:44:04.650Z,14.70
2018-04-22T01:46:32.140Z,14.80
2018-04-22T01:48:59.600Z,14.70
2018-04-22T01:51:27.056Z,14.60
2018-04-22T01:53:54.525Z,14.60
2018-04-22T01:56:21.996Z,14.60
2018-04-22T01:58:50.253Z,14.60
2018-04-22T02:01:17.720Z,14.50
2018-04-22T02:03:45.194Z,14.50
2018-04-22T02:06:12.675Z,14.50
2018-04-22T02:08:40.896Z,14.50
2018-04-22T02:11:08.382Z,14.50
2018-04-22T02:13:35.846Z,14.50
2018-04-22T02:16:03.303Z,14.40
2018-04-22T02:18:30.783Z,14.40
2018-04-22T02:20:58.256Z,14.40
2018-04-22T02:23:25.763Z,14.40
2018-04-22T02:25:53.224Z,14.30
2018-04-22T02:28:20.702Z,14.30
2018-04-22T02:30:48.169Z,14.30
2018-04-22T02:33:15.634Z,14.30
2018-04-22T02:35:43.135Z,14.20
2018-04-22T02:38:10.603Z,14.10
2018-04-22T02:40:38.076Z,14.10
2018-04-22T02:43:06.313Z,14.10
2018-04-22T02:45:33.774Z,14.10
2018-04-22T02:48:01.270Z,14.10
2018-04-22T02:50:28.737Z,14.10
2018-04-22T02:52:56.204Z,14.00
2018-04-22T02:55:23.669Z,14.00
2018-04-22T02:57:51.893Z,14.00
2018-04-22T03:00:19.385Z,14.00
2018-04-22T03:02:46.837Z,14.00
2018-04-22T03:05:14.301Z,14.00
2018-04-22T03:07:41.778Z,13.90
2018-04-22T03:10:09.250Z,13.80
2018-04-22T03:12:36.734Z,13.80
2018-04-22T03:15:04.966Z,13.70
2018-04-22T03:17:32.432Z,13.70
2018-04-22T03:19:59.895Z,13.60
2018-04-22T03:22:27.374Z,13.60
2018-04-22T03:24:54.862Z,13.50
2018-04-22T03:27:22.339Z,13.50
2018-04-22T03:29:50.590Z,13.40
2018-04-22T03:32:18.048Z,13.40
2018-04-22T03:34:45.537Z,13.40
2018-04-22T03:37:13.005Z,13.40
2018-04-22T03:39:41.244Z,13.30
2018-04-22T03:42:08.715Z,13.30
2018-04-22T03:44:36.193Z,13.30
2018-04-22T03:47:03.680Z,13.30
2018-04-22T03:49:31.921Z,13.20
2018-04-22T03:51:59.405Z,13.20
2018-04-22T03:54:26.883Z,13.20
2018-04-22T03:56:54.351Z,13.20
2018-04-22T03:59:22.585Z,13.10
2018-04-22T04:01:50.050Z,13.10
2018-04-22T04:04:17.544Z,13.10
2018-04-22T04:06:45.011Z,13.00
2018-04-22T04:09:12.507Z,13.00
2018-04-22T04:11:40.733Z,13.00
2018-04-22T04:14:08.204Z,13.00
2018-04-22T04:16:35.673Z,13.00
2018-04-22T04:19:15.122Z,13.00
2018-04-22T04:21:54.480Z,13.00
2018-04-22T04:24:43.504Z,13.00
2018-04-22T04:27:22.833Z,13.00
2018-04-22T04:29:50.309Z,13.00
2018-04-22T04:32:18.921Z,13.00
2018-04-22T04:34:47.164Z,13.00
2018-04-22T04:37:14.628Z,13.00
2018-04-22T04:39:42.114Z,13.00
2018-04-22T04:42:10.347Z,13.00
2018-04-22T04:44:37.833Z,12.90
2018-04-22T04:47:05.311Z,12.90
2018-04-22T04:49:32.784Z,12.90
2018-04-22T04:52:01.017Z,13.00
2018-04-22T04:54:28.505Z,12.90
2018-04-22T04:56:56.012Z,13.00
2018-04-22T04:59:24.242Z,13.00
2018-04-22T05:01:51.717Z,13.00
2018-04-22T05:04:19.206Z,13.10
2018-04-22T05:06:46.673Z,13.10
2018-04-22T05:09:14.912Z,13.20
2018-04-22T05:11:42.377Z,13.20
2018-04-22T05:14:09.867Z,13.30
2018-04-22T05:16:37.343Z,13.30
2018-04-22T05:19:04.807Z,13.40
2018-04-22T05:21:33.042Z,13.50
2018-04-22T05:24:00.503Z,13.50
2018-04-22T05:26:27.973Z,13.60
2018-04-22T05:28:55.459Z,13.60
2018-04-22T05:31:22.949Z,13.60
2018-04-22T05:33:51.172Z,13.70
2018-04-22T05:36:18.642Z,13.70
2018-04-22T05:38:46.135Z,13.70
2018-04-22T05:41:13.595Z,13.80
2018-04-22T05:43:41.068Z,13.80
2018-04-22T05:46:08.531Z,13.90
2018-04-22T05:48:36.004Z,13.90
2018-04-22T05:51:04.248Z,14.10
2018-04-22T05:53:31.714Z,14.10
2018-04-22T05:55:59.179Z,14.20
2018-04-22T05:58:26.646Z,14.30
2018-04-22T06:00:54.116Z,14.40
2018-04-22T06:03:21.583Z,14.50
2018-04-22T06:05:49.058Z,14.60
2018-04-22T06:08:16.526Z,14.80
2018-04-22T06:10:43.996Z,15.00
2018-04-22T06:13:12.219Z,15.30
2018-04-22T06:15:39.690Z,15.30
2018-04-22T06:18:07.145Z,15.60
2018-04-22T06:20:34.612Z,15.40
2018-04-22T06:23:02.102Z,15.50
2018-04-22T06:25:29.576Z,15.60
2018-04-22T06:27:57.046Z,15.60
2018-04-22T06:30:24.512Z,15.60
2018-04-22T06:32:51.972Z,15.70
2018-04-22T06:35:19.446Z,15.70
2018-04-22T06:37:46.902Z,15.80
2018-04-22T06:40:14.422Z,15.90
2018-04-22T06:42:41.975Z,16.10
2018-04-22T06:45:09.442Z,16.20
2018-04-22T06:47:36.906Z,16.50
2018-04-22T06:50:04.373Z,16.70
2018-04-22T06:52:31.841Z,16.90
2018-04-22T06:54:59.300Z,16.90
2018-04-22T06:57:26.791Z,17.00
2018-04-22T06:59:54.249Z,17.00
2018-04-22T07:02:21.718Z,17.20
2018-04-22T07:04:49.205Z,17.30
2018-04-22T07:07:16.682Z,17.50
2018-04-22T07:09:44.920Z,17.80
2018-04-22T07:12:12.391Z,17.80
2018-04-22T07:14:39.882Z,17.90
2018-04-22T07:17:07.345Z,18.10
2018-04-22T07:19:34.825Z,18.20
2018-04-22T07:22:03.062Z,18.50
2018-04-22T07:24:30.536Z,18.50
2018-04-22T07:26:58.019Z,18.70
2018-04-22T07:29:25.491Z,18.80
2018-04-22T07:31:53.724Z,19.10
2018-04-22T07:34:21.967Z,19.20
2018-04-22T07:36:50.191Z,19.30
2018-04-22T07:39:17.676Z,19.30
2018-04-22T07:41:45.182Z,19.40
2018-04-22T07:44:12.654Z,19.50
2018-04-22T07:46:40.155Z,19.60
2018-04-22T07:49:07.641Z,19.70
2018-04-22T07:51:35.114Z,19.70
2018-04-22T07:54:03.370Z,19.90
2018-04-22T07:56:30.841Z,19.90
2018-04-22T07:58:58.328Z,20.00
2018-04-22T08:01:26.569Z,20.20
2018-04-22T08:03:54.031Z,20.10
2018-04-22T08:06:21.494Z,20.20
2018-04-22T08:08:48.969Z,20.40
2018-04-22T08:11:16.443Z,20.40
2018-04-22T08:13:43.894Z,20.50
2018-04-22T08:16:11.380Z,20.60
2018-04-22T08:18:38.858Z,20.70
2018-04-22T08:21:07.089Z,20.90
2018-04-22T08:23:34.559Z,20.90
2018-04-22T08:26:02.045Z,21.00
2018-04-22T08:28:29.576Z,21.10
2018-04-22T08:30:56.989Z,21.20
2018-04-22T08:33:25.245Z,21.40
2018-04-22T08:35:52.713Z,21.40
2018-04-22T08:38:20.195Z,21.50
2018-04-22T08:40:48.441Z,21.70
2018-04-22T08:43:15.909Z,21.70
2018-04-22T08:45:43.380Z,21.90
2018-04-22T08:48:10.833Z,21.90
2018-04-22T08:50:38.331Z,21.90
2018-04-22T08:53:05.785Z,22.00
2018-04-22T08:55:33.283Z,22.10
2018-04-22T08:58:00.735Z,22.30
2018-04-22T09:00:28.985Z,22.50
2018-04-22T09:02:56.458Z,22.50
2018-04-22T09:05:23.924Z,22.60
2018-04-22T09:07:51.395Z,22.70
2018-04-22T09:10:18.872Z,22.80
2018-04-22T09:12:47.117Z,22.90
2018-04-22T09:15:14.573Z,22.80
2018-04-22T09:17:42.057Z,23.00
2018-04-22T09:20:09.525Z,23.10
2018-04-22T09:22:36.993Z,23.20
2018-04-22T09:25:05.221Z,23.50
2018-04-22T09:27:32.729Z,23.40
2018-04-22T09:30:00.191Z,23.50
2018-04-22T09:32:27.651Z,23.60
2018-04-22T09:34:55.125Z,23.70
2018-04-22T09:37:22.595Z,23.70
2018-04-22T09:39:50.848Z,23.80
2018-04-22T09:42:18.319Z,23.70
2018-04-22T09:44:45.809Z,23.80
2018-04-22T09:47:14.045Z,24.10
2018-04-22T09:49:41.576Z,24.10
2018-04-22T09:52:09.020Z,24.20
2018-04-22T09:54:37.257Z,24.30
2018-04-22T09:57:04.717Z,24.30
2018-04-22T09:59:32.179Z,24.40
2018-04-22T10:01:59.663Z,24.40
2018-04-22T10:04:29.044Z,24.50
2018-04-22T10:06:56.527Z,24.50
2018-04-22T10:09:24.015Z,24.60
2018-04-22T10:11:51.477Z,24.70
2018-04-22T10:14:18.939Z,24.70
2018-04-22T10:16:46.416Z,24.80
2018-04-22T10:19:14.642Z,24.80
2018-04-22T10:21:42.103Z,24.80
2018-04-22T10:24:09.586Z,24.80
2018-04-22T10:26:37.046Z,24.90
2018-04-22T10:29:04.533Z,24.90
2018-04-22T10:31:32.002Z,25.00
2018-04-22T10:33:59.492Z,25.10
2018-04-22T10:36:27.727Z,25.10
2018-04-22T10:38:55.193Z,25.10
2018-04-22T10:41:22.678Z,25.20
2018-04-22T10:43:50.907Z,25.30
2018-04-22T10:46:18.387Z,25.20
2018-04-22T10:48:45.868Z,25.30
2018-04-22T10:51:13.336Z,25.40
2018-04-22T10:53:40.793Z,25.40
2018-04-22T10:56:08.283Z,25.50
2018-04-22T10:58:36.516Z,25.50
2018-04-22T11:01:04.005Z,25.50
2018-04-22T11:03:31.493Z,25.60
2018-04-22T11:05:59.729Z,25.60
2018-04-22T11:08:27.223Z,25.50
2018-04-22T11:10:54.695Z,25.50
2018-04-22T11:13:22.163Z,25.50
2018-04-22T11:15:50.402Z,25.60
2018-04-22T11:18:17.867Z,25.60
2018-04-22T11:20:45.337Z,25.70
2018-04-22T11:23:12.810Z,25.80
2018-04-22T11:25:40.287Z,25.90
2018-04-22T11:28:07.751Z,25.90
2018-04-22T11:30:35.217Z,25.90
2018-04-22T11:33:02.678Z,25.90
2018-04-22T11:35:30.148Z,25.90
2018-04-22T11:37:58.386Z,25.90
2018-04-22T11:40:25.858Z,25.90
2018-04-22T11:42:53.350Z,26.00
2018-04-22T11:45:20.806Z,26.00
2018-04-22T11:47:48.303Z,26.00
2018-04-22T11:50:16.527Z,26.10
2018-04-22T11:52:43.986Z,26.00
2018-04-22T11:55:11.466Z,26.10
2018-04-22T11:57:38.925Z,26.20
2018-04-22T12:00:06.400Z,26.20
2018-04-22T12:02:33.908Z,26.20
2018-04-22T12:05:01.386Z,26.10
2018-04-22T12:07:28.853Z,26.10
2018-04-22T12:09:56.334Z,26.10
2018-04-22T12:12:23.800Z,26.20
2018-04-22T12:14:51.272Z,26.20
2018-04-22T12:17:18.733Z,26.20
2018-04-22T12:19:46.198Z,26.20
2018-04-22T12:22:13.684Z,26.10
2018-04-22T12:24:41.144Z,26.10
2018-04-22T12:27:08.638Z,26.20
2018-04-22T12:29:36.873Z,26.40
2018-04-22T12:32:04.346Z,26.40
2018-04-22T12:34:32.567Z,26.40
2018-04-22T12:37:00.822Z,26.30
2018-04-22T12:39:28.424Z,26.30
2018-04-22T12:41:55.898Z,26.30
2018-04-22T12:44:23.378Z,26.30
2018-04-22T12:46:50.832Z,26.30
2018-04-22T12:49:18.301Z,26.40
2018-04-22T12:51:45.771Z,26.40
2018-04-22T12:54:13.244Z,26.50
2018-04-22T12:56:40.748Z,26.50
2018-04-22T12:59:08.978Z,26.70
2018-04-22T13:01:36.458Z,26.70
2018-04-22T13:04:04.688Z,26.70
2018-04-22T13:06:32.985Z,26.60
2018-04-22T13:09:00.450Z,26.60
2018-04-22T13:11:27.918Z,26.70
2018-04-22T13:13:55.382Z,26.70
2018-04-22T13:16:22.879Z,26.70
2018-04-22T13:18:50.341Z,26.70
2018-04-22T13:21:17.800Z,26.80
2018-04-22T13:23:45.314Z,26.90
2018-04-22T13:26:13.556Z,27.00
2018-04-22T13:28:41.027Z,27.00
2018-04-22T13:31:08.496Z,27.00
2018-04-22T13:33:35.972Z,27.00
2018-04-22T13:36:03.432Z,27.00
2018-04-22T13:38:31.679Z,27.00
2018-04-22T13:40:59.158Z,26.90
2018-04-22T13:43:26.623Z,27.00
2018-04-22T13:45:54.085Z,27.00
2018-04-22T13:48:21.557Z,27.10
2018-04-22T13:50:49.020Z,27.10
2018-04-22T13:53:16.490Z,27.20
2018-04-22T13:55:43.963Z,27.20
2018-04-22T13:58:12.223Z,27.20
2018-04-22T14:00:39.705Z,27.10
2018-04-22T14:03:07.163Z,27.20
2018-04-22T14:05:34.648Z,27.20
2018-04-22T14:08:02.882Z,27.00
2018-04-22T14:10:30.343Z,27.00
2018-04-22T14:12:57.803Z,27.00
2018-04-22T14:15:25.287Z,26.90
2018-04-22T14:17:52.766Z,26.90
2018-04-22T14:20:20.228Z,26.90
2018-04-22T14:22:48.463Z,26.80
2018-04-22T14:25:15.985Z,26.80
2018-04-22T14:27:43.429Z,26.70
2018-04-22T14:30:10.889Z,26.70
2018-04-22T14:32:38.374Z,26.70
2018-04-22T14:35:06.617Z,26.40
2018-04-22T14:37:34.089Z,26.40
2018-04-22T14:40:01.567Z,26.40
2018-04-22T14:42:29.031Z,26.40
2018-04-22T14:45:08.429Z,26.40
2018-04-22T14:47:35.888Z,26.50
2018-04-22T14:50:03.353Z,26.40
2018-04-22T14:52:30.819Z,26.50
2018-04-22T14:54:58.314Z,26.60
2018-04-22T14:57:25.772Z,26.70
2018-04-22T14:59:53.249Z,26.80
2018-04-22T15:02:20.717Z,26.90
2018-04-22T15:04:48.952Z,27.00
2018-04-22T15:07:16.426Z,26.90
2018-04-22T15:09:43.900Z,26.80
2018-04-22T15:12:11.379Z,26.60
2018-04-22T15:14:38.839Z,26.50
2018-04-22T15:17:06.323Z,26.40
2018-04-22T15:19:34.611Z,26.40
2018-04-22T15:22:02.054Z,26.40
2018-04-22T15:24:29.513Z,26.30
2018-04-22T15:26:56.992Z,26.30
2018-04-22T15:29:25.244Z,26.30
2018-04-22T15:31:52.694Z,26.30
2018-04-22T15:34:20.159Z,26.30
2018-04-22T15:36:47.618Z,26.40
2018-04-22T15:39:15.107Z,26.50
2018-04-22T15:41:42.580Z,26.50
2018-04-22T15:44:10.043Z,26.60
2018-04-22T15:46:37.512Z,26.70
2018-04-22T15:49:04.980Z,26.80
2018-04-22T15:51:33.216Z,26.90
2018-04-22T15:54:00.688Z,26.80
2018-04-22T15:56:28.916Z,27.00
2018-04-22T15:58:57.160Z,27.00
2018-04-22T16:01:24.634Z,27.00
2018-04-22T16:03:52.090Z,26.90
2018-04-22T16:06:19.552Z,26.70
2018-04-22T16:08:47.038Z,26.70
2018-04-22T16:11:14.501Z,26.60
2018-04-22T16:13:41.960Z,26.40
2018-04-22T16:16:09.421Z,26.30
2018-04-22T16:18:36.913Z,26.00
2018-04-22T16:21:05.157Z,25.70
2018-04-22T16:23:32.641Z,25.70
2018-04-22T16:26:00.878Z,25.50
2018-04-22T16:28:28.345Z,25.40
2018-04-22T16:30:55.806Z,25.40
2018-04-22T16:33:23.269Z,25.20
2018-04-22T16:35:50.733Z,25.20
2018-04-22T16:38:18.211Z,25.10
2018-04-22T16:40:45.692Z,25.10
2018-04-22T16:43:13.165Z,25.10
2018-04-22T16:45:40.651Z,25.00
2018-04-22T16:48:08.875Z,25.00
2018-04-22T16:50:36.346Z,25.00
2018-04-22T16:53:03.823Z,25.00
2018-04-22T16:55:31.289Z,24.80
2018-04-22T16:57:58.797Z,24.80
2018-04-22T17:00:26.271Z,24.70
2018-04-22T17:02:53.735Z,24.60
2018-04-22T17:05:21.191Z,24.60
2018-04-22T17:07:48.675Z,24.60
2018-04-22T17:10:16.152Z,24.60
2018-04-22T17:12:43.611Z,24.60
2018-04-22T17:15:11.084Z,24.60
2018-04-22T17:17:38.534Z,24.50
2018-04-22T17:20:06.006Z,24.50
2018-04-22T17:22:33.496Z,24.50
2018-04-22T17:25:00.976Z,24.50
2018-04-22T17:27:29.204Z,24.30
2018-04-22T17:29:56.663Z,24.30
2018-04-22T17:32:24.137Z,24.30
2018-04-22T17:34:51.639Z,24.20
2018-04-22T17:37:19.869Z,23.90
2018-04-22T17:39:47.328Z,24.00
2018-04-22T17:42:14.792Z,23.90
2018-04-22T17:44:42.273Z,23.80
2018-04-22T17:47:09.748Z,23.70
2018-04-22T17:49:37.226Z,23.60
2018-04-22T17:52:04.687Z,23.50
2018-04-22T17:54:32.155Z,23.40
2018-04-22T17:56:59.617Z,23.30
2018-04-22T17:59:27.117Z,23.20
2018-04-22T18:01:54.585Z,23.10
2018-04-22T18:04:22.070Z,23.00
2018-04-22T18:06:49.542Z,22.90
2018-04-22T18:09:17.009Z,22.70
2018-04-22T18:11:44.494Z,22.60
2018-04-22T18:14:11.989Z,22.60
2018-04-22T18:16:40.290Z,22.40
2018-04-22T18:19:07.774Z,22.40
2018-04-22T18:21:35.235Z,22.30
2018-04-22T18:24:02.717Z,22.30
2018-04-22T18:26:30.196Z,22.10
2018-04-22T18:28:57.664Z,22.10
2018-04-22T18:31:25.129Z,22.00
2018-04-22T18:33:52.596Z,21.90
2018-04-22T18:36:20.147Z,21.80
2018-04-22T18:38:47.581Z,21.70
2018-04-22T18:41:15.044Z,21.70
2018-04-22T18:43:42.504Z,21.60
2018-04-22T18:46:10.006Z,21.50
2018-04-22T18:48:37.493Z,21.40
2018-04-22T18:51:05.730Z,21.20
2018-04-22T18:53:33.245Z,21.20
2018-04-22T18:56:01.493Z,21.10
2018-04-22T18:58:28.980Z,21.10
2018-04-22T19:00:56.475Z,21.00
2018-04-22T19:03:23.955Z,20.90
2018-04-22T19:05:51.428Z,20.80
2018-04-22T19:08:19.008Z,20.80
2018-04-22T19:10:47.243Z,20.70
2018-04-22T19:13:14.751Z,20.60
2018-04-22T19:15:43.045Z,20.50
2018-04-22T19:18:10.542Z,20.50
2018-04-22T19:20:38.816Z,20.40
2018-04-22T19:23:07.084Z,20.30
2018-04-22T19:25:34.581Z,20.30
2018-04-22T19:28:02.048Z,20.30
2018-04-22T19:30:29.540Z,20.20
2018-04-22T19:32:57.016Z,20.20
2018-04-22T19:35:24.512Z,20.10
2018-04-22T19:37:52.001Z,20.10
2018-04-22T19:40:19.490Z,20.10
2018-04-22T19:42:46.948Z,20.00
2018-04-22T19:45:14.442Z,20.00
2018-04-22T19:47:41.904Z,20.00
2018-04-22T19:50:09.505Z,19.90
2018-04-22T19:52:37.743Z,19.90
2018-04-22T19:55:05.241Z,19.90
2018-04-22T19:57:33.485Z,19.80
2018-04-22T20:00:00.985Z,19.80
2018-04-22T20:02:28.497Z,19.80
2018-04-22T20:04:55.963Z,19.80
2018-04-22T20:07:23.436Z,19.70
2018-04-22T20:09:50.917Z,19.70
2018-04-22T20:12:18.412Z,19.60
2018-04-22T20:14:46.678Z,19.50
2018-04-22T20:17:14.164Z,19.40
2018-04-22T20:19:42.423Z,19.40
2018-04-22T20:22:09.894Z,19.30
2018-04-22T20:24:37.358Z,19.30
2018-04-22T20:27:04.850Z,19.30
2018-04-22T20:29:32.327Z,19.20
2018-04-22T20:31:59.792Z,19.20
2018-04-22T20:34:27.265Z,19.20
2018-04-22T20:36:54.732Z,19.10
2018-04-22T20:39:22.210Z,19.10
2018-04-22T20:41:49.664Z,19.00
2018-04-22T20:44:17.133Z,19.00
2018-04-22T20:46:44.603Z,18.90
2018-04-22T20:49:12.093Z,18.90
2018-04-22T20:51:39.561Z,18.90
2018-04-22T20:54:07.804Z,18.80
2018-04-22T20:56:35.270Z,18.70
2018-04-22T20:59:02.737Z,18.70
2018-04-22T21:01:30.211Z,18.70
2018-04-22T21:03:57.703Z,18.70
2018-04-22T21:06:25.935Z,18.60
2018-04-22T21:08:53.467Z,18.60
2018-04-22T21:11:20.924Z,18.60
2018-04-22T21:13:48.390Z,18.60
2018-04-22T21:16:16.644Z,18.60
2018-04-22T21:18:44.103Z,18.60
2018-04-22T21:21:11.587Z,18.50
2018-04-22T21:23:39.809Z,18.40
2018-04-22T21:26:07.269Z,18.40
2018-04-22T21:28:34.781Z,18.40
2018-04-22T21:31:02.231Z,18.30
2018-04-22T21:33:29.809Z,18.30
2018-04-22T21:35:57.270Z,18.30
2018-04-22T21:38:24.748Z,18.20
2018-04-22T21:40:52.241Z,18.30
2018-04-22T21:43:19.714Z,18.20
2018-04-22T21:45:47.184Z,18.20
2018-04-22T21:48:14.642Z,18.20
2018-04-22T21:50:42.122Z,18.10
2018-04-22T21:53:09.613Z,18.10
2018-04-22T21:55:37.085Z,18.10
2018-04-22T21:58:04.558Z,18.10
2018-04-22T22:00:32.805Z,18.10
2018-04-22T22:03:00.262Z,18.10
2018-04-22T22:05:27.751Z,18.00
2018-04-22T22:07:55.224Z,18.00
2018-04-22T22:10:22.682Z,18.00
2018-04-22T22:12:50.149Z,18.00
2018-04-22T22:15:17.710Z,17.90
2018-04-22T22:17:45.198Z,17.90
2018-04-22T22:20:13.452Z,17.90
2018-04-22T22:22:41.022Z,17.80
2018-04-22T22:25:08.494Z,17.80
2018-04-22T22:27:35.959Z,17.80
2018-04-22T22:30:03.522Z,17.70
2018-04-22T22:32:31.089Z,17.70
2018-04-22T22:34:58.638Z,17.70
2018-04-22T22:37:26.106Z,17.60
2018-04-22T22:39:53.581Z,17.60
2018-04-22T22:42:21.132Z,17.60
2018-04-22T22:44:48.597Z,17.60
2018-04-22T22:47:16.050Z,17.50
2018-04-22T22:49:43.517Z,17.40
2018-04-22T22:52:11.094Z,17.40
2018-04-22T22:54:38.570Z,17.40
2018-04-22T22:57:06.808Z,17.30
2018-04-22T22:59:34.282Z,17.30
2018-04-22T23:02:01.784Z,17.30
2018-04-22T23:04:29.328Z,17.30
2018-04-22T23:06:56.818Z,17.20
2018-04-22T23:09:25.059Z,17.20
2018-04-22T23:11:52.514Z,17.20
2018-04-22T23:14:19.976Z,17.20
2018-04-22T23:16:47.446Z,17.10
2018-04-22T23:19:14.925Z,17.10
2018-04-22T23:21:42.395Z,17.10
2018-04-22T23:24:10.626Z,17.00
2018-04-22T23:26:38.090Z,17.00
2018-04-22T23:29:05.554Z,17.00
2018-04-22T23:31:33.068Z,17.00
2018-04-22T23:34:00.636Z,17.00
2018-04-22T23:36:28.095Z,17.00
2018-04-22T23:38:55.571Z,17.10
2018-04-22T23:41:23.042Z,17.10
2018-04-22T23:43:51.294Z,17.30
2018-04-22T23:46:18.760Z,17.20
2018-04-22T23:48:46.230Z,17.30
2018-04-22T23:51:13.713Z,17.30
2018-04-22T23:53:41.174Z,17.30
2018-04-22T23:56:08.656Z,17.30
2018-04-22T23:58:36.877Z,17.20
